createdAt,value
2018-09-09T00:00:00.988Z,13.90
2018-09-09T00:00:32.110Z,13.50
2018-09-09T00:01:03.269Z,13.17
2018-09-09T00:01:34.393Z,13.30
2018-09-09T00:02:05.622Z,14.23
2018-09-09T00:02:36.811Z,13.70
2018-09-09T00:03:07.922Z,14.27
2018-09-09T00:03:39.122Z,13.17
2018-09-09T00:04:10.337Z,14.00
2018-09-09T00:04:41.522Z,14.07
2018-09-09T00:05:12.631Z,14.03
2018-09-09T00:05:43.804Z,13.90
2018-09-09T00:06:14.968Z,13.70
2018-09-09T00:06:46.161Z,13.90
2018-09-09T00:07:17.302Z,15.10
2018-09-09T00:07:48.413Z,13.77
2018-09-09T00:08:19.585Z,13.77
2018-09-09T00:08:50.756Z,14.43
2018-09-09T00:09:21.895Z,13.23
2018-09-09T00:09:53.009Z,13.87
2018-09-09T00:10:24.221Z,14.23
2018-09-09T00:10:55.420Z,13.20
2018-09-09T00:11:27.536Z,13.10
2018-09-09T00:11:58.703Z,14.13
2018-09-09T00:12:29.868Z,13.90
2018-09-09T00:13:01.109Z,13.60
2018-09-09T00:13:32.277Z,14.03
2018-09-09T00:14:03.427Z,14.20
2018-09-09T00:14:34.583Z,14.93
2018-09-09T00:15:05.693Z,13.80
2018-09-09T00:15:36.829Z,13.77
2018-09-09T00:16:07.992Z,13.23
2018-09-09T00:16:39.233Z,12.53
2018-09-09T00:17:10.359Z,14.10
2018-09-09T00:17:41.589Z,14.03
2018-09-09T00:18:12.820Z,13.57
2018-09-09T00:18:43.969Z,14.43
2018-09-09T00:19:15.097Z,13.83
2018-09-09T00:19:46.265Z,13.43
2018-09-09T00:20:17.385Z,15.20
2018-09-09T00:20:48.508Z,13.90
2018-09-09T00:21:19.623Z,13.73
2018-09-09T00:21:50.851Z,14.63
2018-09-09T00:22:22.083Z,14.33
2018-09-09T00:22:53.203Z,13.97
2018-09-09T00:23:24.364Z,14.23
2018-09-09T00:23:55.524Z,14.00
2018-09-09T00:24:26.632Z,14.10
2018-09-09T00:24:57.783Z,13.63
2018-09-09T00:25:28.896Z,13.40
2018-09-09T00:26:00.013Z,13.67
2018-09-09T00:26:31.196Z,13.43
2018-09-09T00:27:02.308Z,13.63
2018-09-09T00:27:33.513Z,14.33
2018-09-09T00:28:04.636Z,13.93
2018-09-09T00:28:35.769Z,14.07
2018-09-09T00:29:06.982Z,13.73
2018-09-09T00:29:38.109Z,14.07
2018-09-09T00:30:09.296Z,13.63
2018-09-09T00:30:40.415Z,13.70
2018-09-09T00:31:11.584Z,13.17
2018-09-09T00:31:42.764Z,14.40
2018-09-09T00:32:13.889Z,14.10
2018-09-09T00:32:45.111Z,14.17
2018-09-09T00:33:17.127Z,14.07
2018-09-09T00:33:48.243Z,13.73
2018-09-09T00:34:19.504Z,13.50
2018-09-09T00:34:50.620Z,14.00
2018-09-09T00:35:21.732Z,13.60
2018-09-09T00:35:52.905Z,13.83
2018-09-09T00:36:24.077Z,14.80
2018-09-09T00:36:55.260Z,13.63
2018-09-09T00:37:26.376Z,13.90
2018-09-09T00:37:57.495Z,14.77
2018-09-09T00:38:28.621Z,14.17
2018-09-09T00:38:59.810Z,13.83
2018-09-09T00:39:30.956Z,14.17
2018-09-09T00:40:02.068Z,13.60
2018-09-09T00:40:33.296Z,13.80
2018-09-09T00:41:04.469Z,14.57
2018-09-09T00:41:35.645Z,14.30
2018-09-09T00:42:06.816Z,13.97
2018-09-09T00:42:37.984Z,13.53
2018-09-09T00:43:09.165Z,15.13
2018-09-09T00:43:40.328Z,14.80
2018-09-09T00:44:11.554Z,14.37
2018-09-09T00:44:42.675Z,14.23
2018-09-09T00:45:13.803Z,13.83
2018-09-09T00:45:44.992Z,14.77
2018-09-09T00:46:16.188Z,14.57
2018-09-09T00:46:47.308Z,14.67
2018-09-09T00:47:18.464Z,15.07
2018-09-09T00:47:49.582Z,14.63
2018-09-09T00:48:20.755Z,14.67
2018-09-09T00:48:51.899Z,14.50
2018-09-09T00:49:23.127Z,15.03
2018-09-09T00:49:54.314Z,14.53
2018-09-09T00:50:25.430Z,14.60
2018-09-09T00:50:56.656Z,14.83
2018-09-09T00:51:27.811Z,14.60
2018-09-09T00:51:58.977Z,14.80
2018-09-09T00:52:30.111Z,14.37
2018-09-09T00:53:01.280Z,14.87
2018-09-09T00:53:32.388Z,14.80
2018-09-09T00:54:03.564Z,15.10
2018-09-09T00:54:34.726Z,15.47
2018-09-09T00:55:05.868Z,13.93
2018-09-09T00:55:37.043Z,13.57
2018-09-09T00:56:08.218Z,14.27
2018-09-09T00:56:39.344Z,13.53
2018-09-09T00:57:10.460Z,15.67
2018-09-09T00:57:41.594Z,14.37
2018-09-09T00:58:12.766Z,13.57
2018-09-09T00:58:43.939Z,14.57
2018-09-09T00:59:15.169Z,14.77
2018-09-09T00:59:46.377Z,15.10
2018-09-09T01:00:17.505Z,15.73
2018-09-09T01:00:48.669Z,14.87
2018-09-09T01:01:19.789Z,14.27
2018-09-09T01:01:50.966Z,15.57
2018-09-09T01:02:22.146Z,15.43
2018-09-09T01:02:53.283Z,15.03
2018-09-09T01:03:24.456Z,15.10
2018-09-09T01:03:55.572Z,14.93
2018-09-09T01:04:26.929Z,15.03
2018-09-09T01:04:58.100Z,15.87
2018-09-09T01:05:29.289Z,17.80
2018-09-09T01:06:00.398Z,14.90
2018-09-09T01:06:31.510Z,15.37
2018-09-09T01:07:02.640Z,15.50
2018-09-09T01:07:33.753Z,15.83
2018-09-09T01:08:04.881Z,16.50
2018-09-09T01:08:36.056Z,15.53
2018-09-09T01:09:07.226Z,15.20
2018-09-09T01:09:38.428Z,15.77
2018-09-09T01:10:09.535Z,15.00
2018-09-09T01:10:40.704Z,15.77
2018-09-09T01:11:11.932Z,16.10
2018-09-09T01:11:43.062Z,15.83
2018-09-09T01:12:14.295Z,16.17
2018-09-09T01:12:45.476Z,16.20
2018-09-09T01:13:16.652Z,15.73
2018-09-09T01:13:47.832Z,16.40
2018-09-09T01:14:18.955Z,16.47
2018-09-09T01:14:50.103Z,15.27
2018-09-09T01:15:21.279Z,16.97
2018-09-09T01:15:52.485Z,15.90
2018-09-09T01:16:23.597Z,15.37
2018-09-09T01:16:54.773Z,16.23
2018-09-09T01:17:25.887Z,15.77
2018-09-09T01:17:57.049Z,15.80
2018-09-09T01:18:28.183Z,16.43
2018-09-09T01:18:59.868Z,16.47
2018-09-09T01:19:30.969Z,16.00
2018-09-09T01:20:02.116Z,17.40
2018-09-09T01:20:33.279Z,16.23
2018-09-09T01:21:04.562Z,16.33
2018-09-09T01:21:35.789Z,16.70
2018-09-09T01:22:06.958Z,17.03
2018-09-09T01:22:38.073Z,16.17
2018-09-09T01:23:09.197Z,16.70
2018-09-09T01:23:40.376Z,16.57
2018-09-09T01:24:11.612Z,15.77
2018-09-09T01:24:42.731Z,16.83
2018-09-09T01:25:13.952Z,16.90
2018-09-09T01:25:45.132Z,16.67
2018-09-09T01:26:16.280Z,16.80
2018-09-09T01:26:47.429Z,16.63
2018-09-09T01:27:18.588Z,16.87
2018-09-09T01:27:49.770Z,16.10
2018-09-09T01:28:20.883Z,16.87
2018-09-09T01:28:52.048Z,17.47
2018-09-09T01:29:23.167Z,16.80
2018-09-09T01:29:54.289Z,16.53
2018-09-09T01:30:25.457Z,16.03
2018-09-09T01:30:56.628Z,18.17
2018-09-09T01:31:27.820Z,15.90
2018-09-09T01:31:59.034Z,16.63
2018-09-09T01:32:30.190Z,16.47
2018-09-09T01:33:01.412Z,16.93
2018-09-09T01:33:32.628Z,16.57
2018-09-09T01:34:03.808Z,17.03
2018-09-09T01:34:35.041Z,16.93
2018-09-09T01:35:06.221Z,14.73
2018-09-09T01:35:37.386Z,18.30
2018-09-09T01:36:08.561Z,17.03
2018-09-09T01:36:39.699Z,17.33
2018-09-09T01:37:10.888Z,17.83
2018-09-09T01:37:42.010Z,17.13
2018-09-09T01:38:13.234Z,16.23
2018-09-09T01:38:44.511Z,16.47
2018-09-09T01:39:15.628Z,17.57
2018-09-09T01:39:46.735Z,17.63
2018-09-09T01:40:17.859Z,17.63
2018-09-09T01:40:49.024Z,17.07
2018-09-09T01:41:20.201Z,17.73
2018-09-09T01:41:51.415Z,16.40
2018-09-09T01:42:22.535Z,17.17
2018-09-09T01:42:53.652Z,18.57
2018-09-09T01:43:24.764Z,16.93
2018-09-09T01:43:55.869Z,17.23
2018-09-09T01:44:27.109Z,16.73
2018-09-09T01:44:58.277Z,17.77
2018-09-09T01:45:29.489Z,17.00
2018-09-09T01:46:00.612Z,17.07
2018-09-09T01:46:31.735Z,17.30
2018-09-09T01:47:02.861Z,17.07
2018-09-09T01:47:34.031Z,17.20
2018-09-09T01:48:05.195Z,18.47
2018-09-09T01:48:36.373Z,17.20
2018-09-09T01:49:07.570Z,16.87
2018-09-09T01:49:38.749Z,17.60
2018-09-09T01:50:09.870Z,17.30
2018-09-09T01:50:41.081Z,16.77
2018-09-09T01:51:12.346Z,17.77
2018-09-09T01:51:43.587Z,16.83
2018-09-09T01:52:14.729Z,18.03
2018-09-09T01:52:45.848Z,16.53
2018-09-09T01:53:17.019Z,17.50
2018-09-09T01:53:48.128Z,17.47
2018-09-09T01:54:19.300Z,16.90
2018-09-09T01:54:50.494Z,17.60
2018-09-09T01:55:21.665Z,17.23
2018-09-09T01:55:52.912Z,17.50
2018-09-09T01:56:24.117Z,17.33
2018-09-09T01:56:55.272Z,16.57
2018-09-09T01:57:26.467Z,17.40
2018-09-09T01:57:57.645Z,18.23
2018-09-09T01:58:28.812Z,17.37
2018-09-09T01:59:00.041Z,16.63
2018-09-09T01:59:31.164Z,16.57
2018-09-09T02:00:02.348Z,17.93
2018-09-09T02:00:33.452Z,16.93
2018-09-09T02:01:04.682Z,17.50
2018-09-09T02:01:35.810Z,17.70
2018-09-09T02:02:06.966Z,16.80
2018-09-09T02:02:38.129Z,17.23
2018-09-09T02:03:09.263Z,17.13
2018-09-09T02:03:40.374Z,16.13
2018-09-09T02:04:11.537Z,17.47
2018-09-09T02:04:42.700Z,17.23
2018-09-09T02:05:13.881Z,16.80
2018-09-09T02:05:45.065Z,17.47
2018-09-09T02:06:16.235Z,17.77
2018-09-09T02:06:47.354Z,16.93
2018-09-09T02:07:18.524Z,16.90
2018-09-09T02:07:49.648Z,16.60
2018-09-09T02:08:20.795Z,15.73
2018-09-09T02:08:51.904Z,16.27
2018-09-09T02:09:23.081Z,18.33
2018-09-09T02:09:54.205Z,17.57
2018-09-09T02:10:25.425Z,16.67
2018-09-09T02:10:56.565Z,17.03
2018-09-09T02:11:27.681Z,17.27
2018-09-09T02:11:58.791Z,17.20
2018-09-09T02:12:29.961Z,16.13
2018-09-09T02:13:01.128Z,18.23
2018-09-09T02:13:32.298Z,17.60
2018-09-09T02:14:03.414Z,16.77
2018-09-09T02:14:34.532Z,16.40
2018-09-09T02:15:05.683Z,17.13
2018-09-09T02:15:36.854Z,16.43
2018-09-09T02:16:07.991Z,17.17
2018-09-09T02:16:39.104Z,17.67
2018-09-09T02:17:10.285Z,16.30
2018-09-09T02:17:41.443Z,16.67
2018-09-09T02:18:12.606Z,16.80
2018-09-09T02:18:43.800Z,16.73
2018-09-09T02:19:14.917Z,16.33
2018-09-09T02:19:46.077Z,17.00
2018-09-09T02:20:17.257Z,15.67
2018-09-09T02:20:48.379Z,16.60
2018-09-09T02:21:19.579Z,14.50
2018-09-09T02:21:50.692Z,17.13
2018-09-09T02:22:21.797Z,17.00
2018-09-09T02:22:53.013Z,16.63
2018-09-09T02:23:24.119Z,15.83
2018-09-09T02:23:55.303Z,17.20
2018-09-09T02:24:26.463Z,15.80
2018-09-09T02:24:57.584Z,17.30
2018-09-09T02:25:28.764Z,16.93
2018-09-09T02:25:59.988Z,17.23
2018-09-09T02:26:31.184Z,16.47
2018-09-09T02:27:02.300Z,16.50
2018-09-09T02:27:33.459Z,15.67
2018-09-09T02:28:04.676Z,16.27
2018-09-09T02:28:35.825Z,16.30
2018-09-09T02:29:06.987Z,17.07
2018-09-09T02:29:38.108Z,16.33
2018-09-09T02:30:09.228Z,16.30
2018-09-09T02:30:40.357Z,16.47
2018-09-09T02:31:11.464Z,16.70
2018-09-09T02:31:42.679Z,15.70
2018-09-09T02:32:13.842Z,16.00
2018-09-09T02:32:45.063Z,15.83
2018-09-09T02:33:16.171Z,15.70
2018-09-09T02:33:47.397Z,16.60
2018-09-09T02:34:18.577Z,16.00
2018-09-09T02:34:49.755Z,17.10
2018-09-09T02:35:20.931Z,17.20
2018-09-09T02:35:52.065Z,16.00
2018-09-09T02:36:23.186Z,16.47
2018-09-09T02:36:54.457Z,16.07
2018-09-09T02:37:25.636Z,16.20
2018-09-09T02:37:56.767Z,15.13
2018-09-09T02:38:27.950Z,16.80
2018-09-09T02:38:59.064Z,16.53
2018-09-09T02:39:30.224Z,16.57
2018-09-09T02:40:01.343Z,16.07
2018-09-09T02:40:32.459Z,15.97
2018-09-09T02:41:03.638Z,16.07
2018-09-09T02:41:34.761Z,16.17
2018-09-09T02:42:05.980Z,16.90
2018-09-09T02:42:37.180Z,15.77
2018-09-09T02:43:08.413Z,16.47
2018-09-09T02:43:39.838Z,15.57
2018-09-09T02:44:11.357Z,16.30
2018-09-09T02:44:42.541Z,16.57
2018-09-09T02:45:13.652Z,16.57
2018-09-09T02:45:44.879Z,15.63
2018-09-09T02:46:16.062Z,16.40
2018-09-09T02:46:47.186Z,16.20
2018-09-09T02:47:18.421Z,15.07
2018-09-09T02:47:49.633Z,16.53
2018-09-09T02:48:20.817Z,16.40
2018-09-09T02:48:51.927Z,16.83
2018-09-09T02:49:23.101Z,15.17
2018-09-09T02:49:54.220Z,16.27
2018-09-09T02:50:25.376Z,15.40
2018-09-09T02:50:56.492Z,15.33
2018-09-09T02:51:27.613Z,15.87
2018-09-09T02:51:58.779Z,15.43
2018-09-09T02:52:29.980Z,15.20
2018-09-09T02:53:01.105Z,15.90
2018-09-09T02:53:32.216Z,16.10
2018-09-09T02:54:03.382Z,15.87
2018-09-09T02:54:34.541Z,16.20
2018-09-09T02:55:05.729Z,15.93
2018-09-09T02:55:36.861Z,16.37
2018-09-09T02:56:08.008Z,15.67
2018-09-09T02:56:39.175Z,16.43
2018-09-09T02:57:10.352Z,15.77
2018-09-09T02:57:41.538Z,16.60
2018-09-09T02:58:12.753Z,15.93
2018-09-09T02:58:43.864Z,15.90
2018-09-09T02:59:15.038Z,15.20
2018-09-09T02:59:46.199Z,15.77
2018-09-09T03:00:17.330Z,15.33
2018-09-09T03:00:48.496Z,16.23
2018-09-09T03:01:19.669Z,16.90
2018-09-09T03:01:50.840Z,16.23
2018-09-09T03:02:21.961Z,16.47
2018-09-09T03:02:53.086Z,15.73
2018-09-09T03:03:24.200Z,17.00
2018-09-09T03:03:55.312Z,15.87
2018-09-09T03:04:26.428Z,16.57
2018-09-09T03:04:57.592Z,16.00
2018-09-09T03:05:28.723Z,15.17
2018-09-09T03:05:59.841Z,16.37
2018-09-09T03:06:31.072Z,14.90
2018-09-09T03:07:02.246Z,16.27
2018-09-09T03:07:33.486Z,16.80
2018-09-09T03:08:04.696Z,16.10
2018-09-09T03:08:35.872Z,16.90
2018-09-09T03:09:07.049Z,16.40
2018-09-09T03:09:38.167Z,15.90
2018-09-09T03:10:09.309Z,16.40
2018-09-09T03:10:40.429Z,16.70
2018-09-09T03:11:11.652Z,16.93
2018-09-09T03:11:42.772Z,16.27
2018-09-09T03:12:13.928Z,16.43
2018-09-09T03:12:45.043Z,16.33
2018-09-09T03:13:16.212Z,16.50
2018-09-09T03:13:47.394Z,16.07
2018-09-09T03:14:18.564Z,17.30
2018-09-09T03:14:49.813Z,16.90
2018-09-09T03:15:20.994Z,16.63
2018-09-09T03:15:52.169Z,16.50
2018-09-09T03:16:23.340Z,16.42
2018-09-09T03:16:54.508Z,16.07
2018-09-09T03:17:25.620Z,17.40
2018-09-09T03:17:56.736Z,16.40
2018-09-09T03:18:27.956Z,16.73
2018-09-09T03:18:59.129Z,17.13
2018-09-09T03:19:30.248Z,16.10
2018-09-09T03:20:01.420Z,16.67
2018-09-09T03:20:32.644Z,15.50
2018-09-09T03:21:03.824Z,16.43
2018-09-09T03:21:34.960Z,16.37
2018-09-09T03:22:06.080Z,16.03
2018-09-09T03:22:37.262Z,16.77
2018-09-09T03:23:08.448Z,16.17
2018-09-09T03:23:39.693Z,16.27
2018-09-09T03:24:10.868Z,15.37
2018-09-09T03:24:42.099Z,16.40
2018-09-09T03:25:13.276Z,15.83
2018-09-09T03:25:44.396Z,16.30
2018-09-09T03:26:15.578Z,16.48
2018-09-09T03:26:46.776Z,16.75
2018-09-09T03:27:17.883Z,16.83
2018-09-09T03:27:49.001Z,16.80
2018-09-09T03:28:20.197Z,16.80
2018-09-09T03:28:51.413Z,15.80
2018-09-09T03:29:22.512Z,15.50
2018-09-09T03:29:53.688Z,15.80
2018-09-09T03:30:24.813Z,16.20
2018-09-09T03:30:55.936Z,16.00
2018-09-09T03:31:27.058Z,15.83
2018-09-09T03:31:58.279Z,15.40
2018-09-09T03:32:29.460Z,15.93
2018-09-09T03:33:00.581Z,16.23
2018-09-09T03:33:31.835Z,16.00
2018-09-09T03:34:02.987Z,15.40
2018-09-09T03:34:34.100Z,16.40
2018-09-09T03:35:05.306Z,16.53
2018-09-09T03:35:36.480Z,16.93
2018-09-09T03:36:07.668Z,16.17
2018-09-09T03:36:38.803Z,15.60
2018-09-09T03:37:09.996Z,15.50
2018-09-09T03:37:41.244Z,16.05
2018-09-09T03:38:12.418Z,15.43
2018-09-09T03:38:43.589Z,16.20
2018-09-09T03:39:14.778Z,15.43
2018-09-09T03:39:45.910Z,16.37
2018-09-09T03:40:17.099Z,15.73
2018-09-09T03:40:48.215Z,16.37
2018-09-09T03:41:19.339Z,16.43
2018-09-09T03:41:50.529Z,15.95
2018-09-09T03:42:21.701Z,16.10
2018-09-09T03:42:52.909Z,15.97
2018-09-09T03:43:24.145Z,14.67
2018-09-09T03:43:55.306Z,15.83
2018-09-09T03:44:26.435Z,14.67
2018-09-09T03:44:57.617Z,15.83
2018-09-09T03:45:28.792Z,15.08
2018-09-09T03:45:59.972Z,16.42
2018-09-09T03:46:31.177Z,15.43
2018-09-09T03:47:02.293Z,16.42
2018-09-09T03:47:33.496Z,15.27
2018-09-09T03:48:04.669Z,15.55
2018-09-09T03:48:35.803Z,16.70
2018-09-09T03:49:06.984Z,16.73
2018-09-09T03:49:38.111Z,16.25
2018-09-09T03:50:09.290Z,15.78
2018-09-09T03:50:40.436Z,14.03
2018-09-09T03:51:11.613Z,15.25
2018-09-09T03:51:42.848Z,15.72
2018-09-09T03:52:14.037Z,16.40
2018-09-09T03:52:45.219Z,14.10
2018-09-09T03:53:16.335Z,15.70
2018-09-09T03:53:47.513Z,15.20
2018-09-09T03:54:18.640Z,15.70
2018-09-09T03:54:49.759Z,16.00
2018-09-09T03:55:20.879Z,16.33
2018-09-09T03:55:51.998Z,15.47
2018-09-09T03:56:23.225Z,16.03
2018-09-09T03:56:54.349Z,15.03
2018-09-09T03:57:25.476Z,15.20
2018-09-09T03:57:56.590Z,15.10
2018-09-09T03:58:27.800Z,15.10
2018-09-09T03:58:58.912Z,15.47
2018-09-09T03:59:30.133Z,15.73
2018-09-09T04:00:01.377Z,16.20
2018-09-09T04:00:32.548Z,15.73
2018-09-09T04:01:03.678Z,14.33
2018-09-09T04:01:34.791Z,15.00
2018-09-09T04:02:05.916Z,15.60
2018-09-09T04:02:37.039Z,15.17
2018-09-09T04:03:08.315Z,15.00
2018-09-09T04:03:39.497Z,14.07
2018-09-09T04:04:10.684Z,15.68
2018-09-09T04:04:41.855Z,15.50
2018-09-09T04:05:12.963Z,16.20
2018-09-09T04:05:44.204Z,16.00
2018-09-09T04:06:15.399Z,15.05
2018-09-09T04:06:46.563Z,15.75
2018-09-09T04:07:17.729Z,16.30
2018-09-09T04:07:48.972Z,15.57
2018-09-09T04:08:20.157Z,16.00
2018-09-09T04:08:51.363Z,14.68
2018-09-09T04:09:22.500Z,14.33
2018-09-09T04:09:53.634Z,14.23
2018-09-09T04:10:24.817Z,15.07
2018-09-09T04:10:56.037Z,14.70
2018-09-09T04:11:27.245Z,14.77
2018-09-09T04:11:58.417Z,13.97
2018-09-09T04:12:29.551Z,13.37
2018-09-09T04:13:00.733Z,14.53
2018-09-09T04:13:31.906Z,15.35
2018-09-09T04:14:03.068Z,14.57
2018-09-09T04:14:34.303Z,14.47
2018-09-09T04:15:05.498Z,14.73
2018-09-09T04:15:36.737Z,14.80
2018-09-09T04:16:07.971Z,14.03
2018-09-09T04:16:39.145Z,14.53
2018-09-09T04:17:10.348Z,13.77
2018-09-09T04:17:41.466Z,13.70
2018-09-09T04:18:12.579Z,13.20
2018-09-09T04:18:43.740Z,14.47
2018-09-09T04:19:14.952Z,14.10
2018-09-09T04:19:46.078Z,14.33
2018-09-09T04:20:17.241Z,14.47
2018-09-09T04:20:48.470Z,13.83
2018-09-09T04:21:19.693Z,13.83
2018-09-09T04:21:50.936Z,13.83
2018-09-09T04:22:22.052Z,13.80
2018-09-09T04:22:53.223Z,14.13
2018-09-09T04:23:24.392Z,14.50
2018-09-09T04:23:55.503Z,13.23
2018-09-09T04:24:26.610Z,13.97
2018-09-09T04:24:57.726Z,13.77
2018-09-09T04:25:28.833Z,13.10
2018-09-09T04:25:59.988Z,13.43
2018-09-09T04:26:31.104Z,14.40
2018-09-09T04:27:02.211Z,14.57
2018-09-09T04:27:33.401Z,14.40
2018-09-09T04:28:04.574Z,12.63
2018-09-09T04:28:35.745Z,13.67
2018-09-09T04:29:06.926Z,13.60
2018-09-09T04:29:38.040Z,13.63
2018-09-09T04:30:09.213Z,13.43
2018-09-09T04:30:40.394Z,13.70
2018-09-09T04:31:11.633Z,14.00
2018-09-09T04:31:42.867Z,13.37
2018-09-09T04:32:13.976Z,13.80
2018-09-09T04:32:45.136Z,13.80
2018-09-09T04:33:16.256Z,14.10
2018-09-09T04:33:47.369Z,13.70
2018-09-09T04:34:18.540Z,13.63
2018-09-09T04:34:49.720Z,14.17
2018-09-09T04:35:20.900Z,13.70
2018-09-09T04:35:52.019Z,13.60
2018-09-09T04:36:23.223Z,13.03
2018-09-09T04:36:54.408Z,13.73
2018-09-09T04:37:25.535Z,13.77
2018-09-09T04:37:56.697Z,14.13
2018-09-09T04:38:27.817Z,14.10
2018-09-09T04:38:58.928Z,14.67
2018-09-09T04:39:30.136Z,13.07
2018-09-09T04:40:01.259Z,14.30
2018-09-09T04:40:32.364Z,14.13
2018-09-09T04:41:03.576Z,13.63
2018-09-09T04:41:34.748Z,14.60
2018-09-09T04:42:05.936Z,13.43
2018-09-09T04:42:37.097Z,13.53
2018-09-09T04:43:08.212Z,13.47
2018-09-09T04:43:39.327Z,13.60
2018-09-09T04:44:10.590Z,13.80
2018-09-09T04:44:41.744Z,14.00
2018-09-09T04:45:12.912Z,12.37
2018-09-09T04:45:44.084Z,12.67
2018-09-09T04:46:15.309Z,13.70
2018-09-09T04:46:46.469Z,14.00
2018-09-09T04:47:17.600Z,13.93
2018-09-09T04:47:48.773Z,14.13
2018-09-09T04:48:19.989Z,13.03
2018-09-09T04:48:51.223Z,13.03
2018-09-09T04:49:22.392Z,13.60
2018-09-09T04:49:53.507Z,13.27
2018-09-09T04:50:24.730Z,13.17
2018-09-09T04:50:55.932Z,12.67
2018-09-09T04:51:27.108Z,12.70
2018-09-09T04:51:58.229Z,13.03
2018-09-09T04:52:29.412Z,12.87
2018-09-09T04:53:00.592Z,13.00
2018-09-09T04:53:31.757Z,12.93
2018-09-09T04:54:02.940Z,12.47
2018-09-09T04:54:34.146Z,12.73
2018-09-09T04:55:05.308Z,12.27
2018-09-09T04:55:36.424Z,12.60
2018-09-09T04:56:07.584Z,13.10
2018-09-09T04:56:38.762Z,13.20
2018-09-09T04:57:09.931Z,13.70
2018-09-09T04:57:41.069Z,13.10
2018-09-09T04:58:12.182Z,13.43
2018-09-09T04:58:43.345Z,13.33
2018-09-09T04:59:14.565Z,13.30
2018-09-09T04:59:46.349Z,12.30
2018-09-09T05:00:17.560Z,13.00
2018-09-09T05:00:48.693Z,13.77
2018-09-09T05:01:19.909Z,13.43
2018-09-09T05:01:50.946Z,14.20
2018-09-09T05:02:22.114Z,13.50
2018-09-09T05:02:53.236Z,12.37
2018-09-09T05:03:24.425Z,12.77
2018-09-09T05:03:55.601Z,12.73
2018-09-09T05:04:26.801Z,13.57
2018-09-09T05:04:57.928Z,12.57
2018-09-09T05:05:29.126Z,12.97
2018-09-09T05:06:00.306Z,13.80
2018-09-09T05:06:31.429Z,13.63
2018-09-09T05:07:02.656Z,13.77
2018-09-09T05:07:33.780Z,12.73
2018-09-09T05:08:04.954Z,13.30
2018-09-09T05:08:36.079Z,12.93
2018-09-09T05:09:07.242Z,13.20
2018-09-09T05:09:38.421Z,13.23
2018-09-09T05:10:09.596Z,13.30
2018-09-09T05:10:40.749Z,13.13
2018-09-09T05:11:11.917Z,13.37
2018-09-09T05:11:43.037Z,13.83
2018-09-09T05:12:14.150Z,13.17
2018-09-09T05:12:45.278Z,13.17
2018-09-09T05:13:16.446Z,13.00
2018-09-09T05:13:47.628Z,13.87
2018-09-09T05:14:18.749Z,14.00
2018-09-09T05:14:49.865Z,12.67
2018-09-09T05:15:21.044Z,12.63
2018-09-09T05:15:52.268Z,13.40
2018-09-09T05:16:23.373Z,12.40
2018-09-09T05:16:54.495Z,13.40
2018-09-09T05:17:25.661Z,13.37
2018-09-09T05:17:56.782Z,13.30
2018-09-09T05:18:27.969Z,12.27
2018-09-09T05:18:59.116Z,12.70
2018-09-09T05:19:30.284Z,13.53
2018-09-09T05:20:01.643Z,13.20
2018-09-09T05:20:32.838Z,13.17
2018-09-09T05:21:04.003Z,12.03
2018-09-09T05:21:35.173Z,13.33
2018-09-09T05:22:06.415Z,12.17
2018-09-09T05:22:37.649Z,13.80
2018-09-09T05:23:08.834Z,12.30
2018-09-09T05:23:39.973Z,13.30
2018-09-09T05:24:11.138Z,12.80
2018-09-09T05:24:42.313Z,13.83
2018-09-09T05:25:13.432Z,13.13
2018-09-09T05:25:45.209Z,12.97
2018-09-09T05:26:16.396Z,13.30
2018-09-09T05:26:47.504Z,13.23
2018-09-09T05:27:18.666Z,13.53
2018-09-09T05:27:49.880Z,13.27
2018-09-09T05:28:21.062Z,12.80
2018-09-09T05:28:52.223Z,12.60
2018-09-09T05:29:23.409Z,12.43
2018-09-09T05:29:54.594Z,12.10
2018-09-09T05:30:25.823Z,12.50
2018-09-09T05:30:56.948Z,12.23
2018-09-09T05:31:28.194Z,12.60
2018-09-09T05:31:59.368Z,13.63
2018-09-09T05:32:30.582Z,12.70
2018-09-09T05:33:01.698Z,13.20
2018-09-09T05:33:32.846Z,13.27
2018-09-09T05:34:04.064Z,13.33
2018-09-09T05:34:35.274Z,11.97
2018-09-09T05:35:06.396Z,12.60
2018-09-09T05:35:37.619Z,12.23
2018-09-09T05:36:08.794Z,12.60
2018-09-09T05:36:39.923Z,12.30
2018-09-09T05:37:11.163Z,12.87
2018-09-09T05:37:42.344Z,12.93
2018-09-09T05:38:13.521Z,12.83
2018-09-09T05:38:44.831Z,12.50
2018-09-09T05:39:16.612Z,12.53
2018-09-09T05:39:47.731Z,12.27
2018-09-09T05:40:18.852Z,11.37
2018-09-09T05:40:49.959Z,11.73
2018-09-09T05:41:21.077Z,12.10
2018-09-09T05:41:52.188Z,12.93
2018-09-09T05:42:23.449Z,12.20
2018-09-09T05:42:54.557Z,12.67
2018-09-09T05:43:25.726Z,12.20
2018-09-09T05:43:56.933Z,12.33
2018-09-09T05:44:28.108Z,12.60
2018-09-09T05:44:59.295Z,12.33
2018-09-09T05:45:30.480Z,12.97
2018-09-09T05:46:01.652Z,12.63
2018-09-09T05:46:32.861Z,13.10
2018-09-09T05:47:03.972Z,12.03
2018-09-09T05:47:35.087Z,12.73
2018-09-09T05:48:06.254Z,12.60
2018-09-09T05:48:37.389Z,11.70
2018-09-09T05:49:08.592Z,11.97
2018-09-09T05:49:39.772Z,11.80
2018-09-09T05:50:10.890Z,11.83
2018-09-09T05:50:42.125Z,12.07
2018-09-09T05:51:13.316Z,11.80
2018-09-09T05:51:44.533Z,11.77
2018-09-09T05:52:15.658Z,11.60
2018-09-09T05:52:46.775Z,11.73
2018-09-09T05:53:17.953Z,11.13
2018-09-09T05:53:49.137Z,12.57
2018-09-09T05:54:20.258Z,12.73
2018-09-09T05:54:51.371Z,12.57
2018-09-09T05:55:22.551Z,12.93
2018-09-09T05:55:53.730Z,12.20
2018-09-09T05:56:24.844Z,12.07
2018-09-09T05:56:56.110Z,12.47
2018-09-09T05:57:27.312Z,12.53
2018-09-09T05:57:58.519Z,12.57
2018-09-09T05:58:29.673Z,12.27
2018-09-09T05:59:00.840Z,11.97
2018-09-09T05:59:32.090Z,11.93
2018-09-09T06:00:03.216Z,11.83
2018-09-09T06:00:34.340Z,11.87
2018-09-09T06:01:05.513Z,11.70
2018-09-09T06:01:36.744Z,10.87
2018-09-09T06:02:07.931Z,11.67
2018-09-09T06:02:39.095Z,12.23
2018-09-09T06:03:10.329Z,12.33
2018-09-09T06:03:41.513Z,12.20
2018-09-09T06:04:12.681Z,12.10
2018-09-09T06:04:43.921Z,11.23
2018-09-09T06:05:15.113Z,11.90
2018-09-09T06:05:46.277Z,12.20
2018-09-09T06:06:17.502Z,11.47
2018-09-09T06:06:48.625Z,12.13
2018-09-09T06:07:19.755Z,12.60
2018-09-09T06:07:50.877Z,12.30
2018-09-09T06:08:22.094Z,12.53
2018-09-09T06:08:53.203Z,11.27
2018-09-09T06:09:24.404Z,11.73
2018-09-09T06:09:55.527Z,11.77
2018-09-09T06:10:26.708Z,11.83
2018-09-09T06:10:57.893Z,13.03
2018-09-09T06:11:29.059Z,11.03
2018-09-09T06:12:00.232Z,12.03
2018-09-09T06:12:31.368Z,12.60
2018-09-09T06:13:02.481Z,12.13
2018-09-09T06:13:33.599Z,11.50
2018-09-09T06:14:04.783Z,12.57
2018-09-09T06:14:35.940Z,12.47
2018-09-09T06:15:07.173Z,12.30
2018-09-09T06:15:38.296Z,11.57
2018-09-09T06:16:09.481Z,12.30
2018-09-09T06:16:40.712Z,11.80
2018-09-09T06:17:11.893Z,13.00
2018-09-09T06:17:43.080Z,12.10
2018-09-09T06:18:14.255Z,11.83
2018-09-09T06:18:45.424Z,11.60
2018-09-09T06:19:16.618Z,12.30
2018-09-09T06:19:47.824Z,12.50
2018-09-09T06:20:18.993Z,11.80
2018-09-09T06:20:50.175Z,11.90
2018-09-09T06:21:21.309Z,11.00
2018-09-09T06:21:52.441Z,11.80
2018-09-09T06:22:23.669Z,12.03
2018-09-09T06:22:54.844Z,11.40
2018-09-09T06:23:26.023Z,12.07
2018-09-09T06:23:57.156Z,11.23
2018-09-09T06:24:28.277Z,11.93
2018-09-09T06:24:59.403Z,11.73
2018-09-09T06:25:30.648Z,10.93
2018-09-09T06:26:01.820Z,12.57
2018-09-09T06:26:32.951Z,11.67
2018-09-09T06:27:04.077Z,11.33
2018-09-09T06:27:35.198Z,12.33
2018-09-09T06:28:06.391Z,11.50
2018-09-09T06:28:37.500Z,12.43
2018-09-09T06:29:08.624Z,12.10
2018-09-09T06:29:39.751Z,12.10
2018-09-09T06:30:10.972Z,12.13
2018-09-09T06:30:42.144Z,11.70
2018-09-09T06:31:13.385Z,11.40
2018-09-09T06:31:44.574Z,11.70
2018-09-09T06:32:15.807Z,11.80
2018-09-09T06:32:46.988Z,11.50
2018-09-09T06:33:18.236Z,12.03
2018-09-09T06:33:49.450Z,12.10
2018-09-09T06:34:20.571Z,11.97
2018-09-09T06:34:51.684Z,12.03
2018-09-09T06:35:22.822Z,12.00
2018-09-09T06:35:53.956Z,12.33
2018-09-09T06:36:25.134Z,12.43
2018-09-09T06:36:56.305Z,11.63
2018-09-09T06:37:27.440Z,12.40
2018-09-09T06:37:58.612Z,11.77
2018-09-09T06:38:29.859Z,12.13
2018-09-09T06:39:01.082Z,11.87
2018-09-09T06:39:32.253Z,11.17
2018-09-09T06:40:03.368Z,12.20
2018-09-09T06:40:34.544Z,11.60
2018-09-09T06:41:05.663Z,12.47